Aredale, IA

8:27 AM CDT on October 24, 2014 (GMT -0500)
Beeds Addition | Change Station
CLOSE
Current Station
Personal Weather Station
Location: Hampton, IA
Elevation: 1145 ft
Nearby Weather Stations
Active Advisory: Dense Fog Advisory

Elev 1145 ft 42.74 °N, 93.20 °W | Updated 4 seconds ago

Mostly Cloudy
Mostly Cloudy
50.2 °F
Feels Like 50.2 °F
N
9.2
Wind Variable Wind from SSW
Gusts 9.2 mph

Today
High -- | Low -- °F
--% Chance of Precip.
Yesterday
High -- | Low -- °F
Precip. -- in
7:36 AM 6:15 PM
New Moon, 0% visible
Pressure 29.96 in
Visibility 0.2 miles
Clouds Overcast 300 ft
Dew Point 50 °F
Humidity 100%
Rainfall 0.00 in
Snow Depth Not available.
UV 0 out of 12
Pollen 1.70 out of 12
Air Quality Not available.
Flu Activity Sporadic
METAR KCCY 241315Z AUTO 15007KT M1/4SM FG OVC003 09/09 A2996 RMK AO2

More Conditions Fewer Conditions

Pressure 29.96 in
Visibility 0.2 miles
Clouds Overcast 300 ft
Dew Point 50 °F
Humidity 100%
Rainfall 0.00 in
Snow Depth Not available.
UV 0 out of 12
Pollen 1.70 out of 12
Air Quality Not available.
Flu Activity Sporadic
METAR KCCY 241315Z AUTO 15007KT M1/4SM FG OVC003 09/09 A2996 RMK AO2

More Conditions Fewer Conditions

10-Day Weather Forecast

Almanac

Astronomy

Oct. 24, 2014 Rise Set
Actual Time 7:36 AM CDT 6:15 PM CDT
Civil Twilight 7:07 AM CDT 6:44 PM CDT
Nautical Twilight 6:34 AM CDT 7:17 PM CDT
Astronomical Twilight 6:01 AM CDT 7:50 PM CDT
Moon 8:16 AM CDT 6:54 PM CDT
Length of Visible Light 11h 37m
Length of Day
10h 39m
Tomorrow will be 2m 42s shorter.
New Moon, 0% of the Moon is Illuminated
Today
New Moon
Oct 30
First Quarter
Nov 6
Full
Nov 14
Last Quarter
Nov 22
New

Today's Extremes

State Highs State Lows

Community

WunderPhotos

Upload Photos

1,764,549 photos uploaded!

WunderBlogs® & News

Nearby

Snow Depth

Station Depth Elevation
No new snow has been reported.

Earthquake Activity

City Distance Mag. Time & Date
No recent earthquake activity has been reported nearby.
Minimum magnitude displayed is 2.5.

Coastal Water Temperatures

Place Temperature
No Stations Reporting

Nearby Weather Stations